sensor_id;sensor_type;location;lat;lon;timestamp;pressure;altitude;pressure_sealevel;temperature;humidity
6349;BME280;3207;42.648;23.406;2022-10-22T00:02:13;100191.63;;;19.32;59.68
6349;BME280;3207;42.648;23.406;2022-10-22T00:04:44;100183.69;;;19.32;59.83
6349;BME280;3207;42.648;23.406;2022-10-22T00:07:11;100182.84;;;19.31;59.84
6349;BME280;3207;42.648;23.406;2022-10-22T00:09:38;100186.16;;;19.33;59.86
6349;BME280;3207;42.648;23.406;2022-10-22T00:12:06;100177.22;;;19.34;60.01
6349;BME280;3207;42.648;23.406;2022-10-22T00:14:33;100181.03;;;19.32;60.18
6349;BME280;3207;42.648;23.406;2022-10-22T00:17:00;100187.66;;;19.36;60.19
6349;BME280;3207;42.648;23.406;2022-10-22T00:19:27;100186.69;;;19.37;60.05
6349;BME280;3207;42.648;23.406;2022-10-22T00:21:54;100194.78;;;19.35;60.21
6349;BME280;3207;42.648;23.406;2022-10-22T00:24:22;100187.84;;;19.34;60.46
6349;BME280;3207;42.648;23.406;2022-10-22T00:26:49;100198.13;;;19.37;60.55
6349;BME280;3207;42.648;23.406;2022-10-22T00:29:17;100190.31;;;19.36;60.55
6349;BME280;3207;42.648;23.406;2022-10-22T00:31:45;100194.28;;;19.32;60.61
6349;BME280;3207;42.648;23.406;2022-10-22T00:34:15;100199.06;;;19.28;60.77
6349;BME280;3207;42.648;23.406;2022-10-22T00:36:43;100197.59;;;19.26;60.86
6349;BME280;3207;42.648;23.406;2022-10-22T00:39:10;100193.59;;;19.22;61.30
6349;BME280;3207;42.648;23.406;2022-10-22T00:41:37;100178.69;;;19.13;61.31
6349;BME280;3207;42.648;23.406;2022-10-22T00:44:05;100177.16;;;19.10;61.67
6349;BME280;3207;42.648;23.406;2022-10-22T00:46:33;100180.13;;;19.07;61.82
6349;BME280;3207;42.648;23.406;2022-10-22T00:49:02;100167.53;;;19.01;62.10
6349;BME280;3207;42.648;23.406;2022-10-22T00:51:32;100177.16;;;19.02;62.05
6349;BME280;3207;42.648;23.406;2022-10-22T00:54:04;100171.19;;;19.00;62.25
6349;BME280;3207;42.648;23.406;2022-10-22T00:56:32;100167.69;;;18.99;62.13
6349;BME280;3207;42.648;23.406;2022-10-22T00:58:59;100160.75;;;18.98;62.23
6349;BME280;3207;42.648;23.406;2022-10-22T01:01:30;100165.22;;;18.98;62.26
6349;BME280;3207;42.648;23.406;2022-10-22T01:03:58;100154.63;;;18.98;62.11
6349;BME280;3207;42.648;23.406;2022-10-22T01:06:28;100167.69;;;18.99;62.26
6349;BME280;3207;42.648;23.406;2022-10-22T01:09:04;100150.50;;;18.95;62.39
6349;BME280;3207;42.648;23.406;2022-10-22T01:11:45;100156.94;;;19.01;62.22
6349;BME280;3207;42.648;23.406;2022-10-22T01:14:19;100146.19;;;19.02;62.11
6349;BME280;3207;42.648;23.406;2022-10-22T01:16:54;100147.84;;;19.04;62.22
6349;BME280;3207;42.648;23.406;2022-10-22T01:19:45;100131.44;;;19.00;62.18
6349;BME280;3207;42.648;23.406;2022-10-22T01:22:20;100135.59;;;19.02;62.03
6349;BME280;3207;42.648;23.406;2022-10-22T01:24:57;100145.19;;;19.04;62.14
6349;BME280;3207;42.648;23.406;2022-10-22T01:27:33;100125.97;;;19.01;62.07
6349;BME280;3207;42.648;23.406;2022-10-22T01:30:03;100134.75;;;19.02;62.47
6349;BME280;3207;42.648;23.406;2022-10-22T01:32:36;100137.41;;;19.02;62.18
6349;BME280;3207;42.648;23.406;2022-10-22T01:35:07;100095.78;;;18.78;62.22
6349;BME280;3207;42.648;23.406;2022-10-22T01:37:38;100122.34;;;18.94;62.41
6349;BME280;3207;42.648;23.406;2022-10-22T01:40:08;100130.91;;;18.96;62.16
6349;BME280;3207;42.648;23.406;2022-10-22T01:42:36;100124.81;;;18.96;62.10
6349;BME280;3207;42.648;23.406;2022-10-22T01:45:10;100127.47;;;18.96;61.91
6349;BME280;3207;42.648;23.406;2022-10-22T01:47:43;100128.63;;;18.93;61.74
6349;BME280;3207;42.648;23.406;2022-10-22T01:50:34;100120.00;;;18.99;61.53
6349;BME280;3207;42.648;23.406;2022-10-22T01:53:16;100108.41;;;19.00;61.57
6349;BME280;3207;42.648;23.406;2022-10-22T01:55:55;100120.69;;;19.01;61.43
6349;BME280;3207;42.648;23.406;2022-10-22T01:58:35;100116.88;;;19.04;61.27
6349;BME280;3207;42.648;23.406;2022-10-22T02:01:10;100113.41;;;19.04;61.31
6349;BME280;3207;42.648;23.406;2022-10-22T02:03:44;100114.91;;;19.06;61.20
6349;BME280;3207;42.648;23.406;2022-10-22T02:06:16;100110.44;;;19.07;61.38
6349;BME280;3207;42.648;23.406;2022-10-22T02:08:45;100115.38;;;19.10;61.11
6349;BME280;3207;42.648;23.406;2022-10-22T02:11:13;100116.22;;;19.10;61.11
6349;BME280;3207;42.648;23.406;2022-10-22T02:13:44;100113.56;;;19.10;60.93
6349;BME280;3207;42.648;23.406;2022-10-22T02:16:17;100107.78;;;19.07;61.12
6349;BME280;3207;42.648;23.406;2022-10-22T02:18:45;100099.47;;;19.01;61.10
6349;BME280;3207;42.648;23.406;2022-10-22T02:21:13;100112.06;;;19.08;61.41
6349;BME280;3207;42.648;23.406;2022-10-22T02:23:41;100095.19;;;19.09;61.43
6349;BME280;3207;42.648;23.406;2022-10-22T02:26:15;100109.44;;;19.16;61.34
6349;BME280;3207;42.648;23.406;2022-10-22T02:28:50;100099.31;;;19.11;61.25
6349;BME280;3207;42.648;23.406;2022-10-22T02:31:23;100100.47;;;19.09;61.29
6349;BME280;3207;42.648;23.406;2022-10-22T02:33:54;100112.09;;;19.16;61.44
6349;BME280;3207;42.648;23.406;2022-10-22T02:36:22;100120.06;;;19.16;61.46
6349;BME280;3207;42.648;23.406;2022-10-22T02:38:50;100118.38;;;19.15;61.51
6349;BME280;3207;42.648;23.406;2022-10-22T02:41:18;100123.19;;;19.11;61.83
6349;BME280;3207;42.648;23.406;2022-10-22T02:43:49;100127.81;;;19.09;62.02
6349;BME280;3207;42.648;23.406;2022-10-22T02:46:16;100105.94;;;19.07;62.16
6349;BME280;3207;42.648;23.406;2022-10-22T02:48:45;100111.22;;;19.07;62.36
6349;BME280;3207;42.648;23.406;2022-10-22T02:51:12;100103.28;;;19.07;62.41
6349;BME280;3207;42.648;23.406;2022-10-22T02:53:38;100112.91;;;19.08;62.51
6349;BME280;3207;42.648;23.406;2022-10-22T02:56:06;100118.03;;;19.10;62.53
6349;BME280;3207;42.648;23.406;2022-10-22T02:58:32;100107.59;;;19.08;62.52
6349;BME280;3207;42.648;23.406;2022-10-22T03:00:59;100098.19;;;19.06;62.51
6349;BME280;3207;42.648;23.406;2022-10-22T03:03:26;100109.41;;;19.08;62.70
6349;BME280;3207;42.648;23.406;2022-10-22T03:05:54;100106.75;;;19.08;62.87
6349;BME280;3207;42.648;23.406;2022-10-22T03:08:21;100105.94;;;19.07;62.77
6349;BME280;3207;42.648;23.406;2022-10-22T03:10:48;100110.25;;;19.08;62.87
6349;BME280;3207;42.648;23.406;2022-10-22T03:13:15;100108.78;;;19.06;62.99
6349;BME280;3207;42.648;23.406;2022-10-22T03:15:41;100096.50;;;19.05;63.10
6349;BME280;3207;42.648;23.406;2022-10-22T03:18:08;100101.81;;;19.05;63.05
6349;BME280;3207;42.648;23.406;2022-10-22T03:20:35;100094.84;;;19.04;63.16
6349;BME280;3207;42.648;23.406;2022-10-22T03:23:03;100097.66;;;19.02;63.13
6349;BME280;3207;42.648;23.406;2022-10-22T03:25:31;100100.16;;;19.04;63.08
6349;BME280;3207;42.648;23.406;2022-10-22T03:28:02;100102.81;;;19.04;63.07
6349;BME280;3207;42.648;23.406;2022-10-22T03:30:30;100090.03;;;18.99;63.36
6349;BME280;3207;42.648;23.406;2022-10-22T03:32:57;100101.31;;;19.01;63.40
6349;BME280;3207;42.648;23.406;2022-10-22T03:35:24;100101.47;;;18.99;63.11
6349;BME280;3207;42.648;23.406;2022-10-22T03:37:51;100097.50;;;18.95;63.19
6349;BME280;3207;42.648;23.406;2022-10-22T03:40:20;100106.44;;;18.94;63.15
6349;BME280;3207;42.648;23.406;2022-10-22T03:42:47;100099.47;;;18.93;63.34
6349;BME280;3207;42.648;23.406;2022-10-22T03:45:14;100097.16;;;18.90;63.19
6349;BME280;3207;42.648;23.406;2022-10-22T03:47:41;100104.25;;;18.90;63.39
6349;BME280;3207;42.648;23.406;2022-10-22T03:50:08;100096.47;;;18.88;63.40
6349;BME280;3207;42.648;23.406;2022-10-22T03:52:36;100095.81;;;18.86;63.25
6349;BME280;3207;42.648;23.406;2022-10-22T03:55:05;100076.25;;;18.79;63.54
6349;BME280;3207;42.648;23.406;2022-10-22T03:57:33;100094.81;;;18.87;63.46
6349;BME280;3207;42.648;23.406;2022-10-22T04:00:00;100095.81;;;18.86;63.65
6349;BME280;3207;42.648;23.406;2022-10-22T04:02:27;100077.25;;;18.86;63.56
6349;BME280;3207;42.648;23.406;2022-10-22T04:04:53;100071.31;;;18.84;63.67
6349;BME280;3207;42.648;23.406;2022-10-22T04:07:20;100077.59;;;18.83;63.68
6349;BME280;3207;42.648;23.406;2022-10-22T04:09:47;100076.78;;;18.83;63.31
6349;BME280;3207;42.648;23.406;2022-10-22T04:12:14;100075.13;;;18.82;63.68
6349;BME280;3207;42.648;23.406;2022-10-22T04:14:42;100077.91;;;18.80;63.98
6349;BME280;3207;42.648;23.406;2022-10-22T04:17:09;100089.50;;;18.79;64.05
6349;BME280;3207;42.648;23.406;2022-10-22T04:19:36;100094.28;;;18.76;64.09
6349;BME280;3207;42.648;23.406;2022-10-22T04:22:03;100085.50;;;18.75;64.26
6349;BME280;3207;42.648;23.406;2022-10-22T04:24:30;100090.81;;;18.75;64.26
6349;BME280;3207;42.648;23.406;2022-10-22T04:26:58;100076.75;;;18.75;64.21
6349;BME280;3207;42.648;23.406;2022-10-22T04:29:25;100076.91;;;18.73;64.37
6349;BME280;3207;42.648;23.406;2022-10-22T04:31:53;100073.59;;;18.71;64.33
6349;BME280;3207;42.648;23.406;2022-10-22T04:34:20;100076.09;;;18.73;64.41
6349;BME280;3207;42.648;23.406;2022-10-22T04:36:47;100076.91;;;18.73;64.40
6349;BME280;3207;42.648;23.406;2022-10-22T04:39:14;100066.47;;;18.72;64.07
6349;BME280;3207;42.648;23.406;2022-10-22T04:41:40;100062.19;;;18.71;63.97
6349;BME280;3207;42.648;23.406;2022-10-22T04:44:07;100054.69;;;18.66;64.11
6349;BME280;3207;42.648;23.406;2022-10-22T04:46:34;100073.75;;;18.70;63.81
6349;BME280;3207;42.648;23.406;2022-10-22T04:49:03;100068.47;;;18.70;63.84
6349;BME280;3207;42.648;23.406;2022-10-22T04:51:30;100053.56;;;18.69;63.77
6349;BME280;3207;42.648;23.406;2022-10-22T04:53:57;100043.78;;;18.69;63.49
6349;BME280;3207;42.648;23.406;2022-10-22T04:56:26;100049.75;;;18.71;63.30
6349;BME280;3207;42.648;23.406;2022-10-22T04:58:54;100006.63;;;18.45;63.19
6349;BME280;3207;42.648;23.406;2022-10-22T05:01:22;100047.94;;;18.72;63.25
6349;BME280;3207;42.648;23.406;2022-10-22T05:03:51;100054.91;;;18.73;63.01
6349;BME280;3207;42.648;23.406;2022-10-22T05:06:20;100053.56;;;18.69;62.97
6349;BME280;3207;42.648;23.406;2022-10-22T05:08:47;100057.72;;;18.71;63.02
6349;BME280;3207;42.648;23.406;2022-10-22T05:11:15;100059.00;;;18.67;62.94
6349;BME280;3207;42.648;23.406;2022-10-22T05:13:42;100063.31;;;18.68;62.97
6349;BME280;3207;42.648;23.406;2022-10-22T05:16:09;100054.69;;;18.66;62.93
6349;BME280;3207;42.648;23.406;2022-10-22T05:18:37;100051.41;;;18.64;62.83
6349;BME280;3207;42.648;23.406;2022-10-22T05:21:08;100046.13;;;18.64;62.87
6349;BME280;3207;42.648;23.406;2022-10-22T05:23:36;100046.13;;;18.64;62.65
6349;BME280;3207;42.648;23.406;2022-10-22T05:26:05;100046.44;;;18.61;62.18
6349;BME280;3207;42.648;23.406;2022-10-22T05:28:33;100041.13;;;18.61;62.40
6349;BME280;3207;42.648;23.406;2022-10-22T05:31:00;100057.53;;;18.64;62.37
6349;BME280;3207;42.648;23.406;2022-10-22T05:33:28;100053.03;;;18.65;62.19
6349;BME280;3207;42.648;23.406;2022-10-22T05:35:55;100049.09;;;18.61;62.22
6349;BME280;3207;42.648;23.406;2022-10-22T05:38:23;100057.03;;;18.61;62.20
6349;BME280;3207;42.648;23.406;2022-10-22T05:41:01;100068.13;;;18.64;61.62
6349;BME280;3207;42.648;23.406;2022-10-22T05:43:29;100073.44;;;18.64;61.27
6349;BME280;3207;42.648;23.406;2022-10-22T05:45:59;100083.84;;;18.66;60.88
6349;BME280;3207;42.648;23.406;2022-10-22T05:48:27;100079.34;;;18.58;60.12
6349;BME280;3207;42.648;23.406;2022-10-22T05:50:54;100081.69;;;18.70;59.93
6349;BME280;3207;42.648;23.406;2022-10-22T05:53:21;100081.53;;;18.71;59.64
6349;BME280;3207;42.648;23.406;2022-10-22T05:55:48;100080.22;;;18.75;59.19
6349;BME280;3207;42.648;23.406;2022-10-22T05:58:16;100074.91;;;18.75;58.73
6349;BME280;3207;42.648;23.406;2022-10-22T06:00:43;100083.88;;;18.82;58.69
6349;BME280;3207;42.648;23.406;2022-10-22T06:03:09;100088.03;;;18.85;58.91
6349;BME280;3207;42.648;23.406;2022-10-22T06:05:36;100093.50;;;18.83;58.83
6349;BME280;3207;42.648;23.406;2022-10-22T06:08:04;100103.44;;;18.89;58.95
6349;BME280;3207;42.648;23.406;2022-10-22T06:10:31;100101.44;;;18.91;58.77
6349;BME280;3207;42.648;23.406;2022-10-22T06:12:58;100099.47;;;18.93;58.76
6349;BME280;3207;42.648;23.406;2022-10-22T06:15:27;100095.84;;;18.94;59.07
6349;BME280;3207;42.648;23.406;2022-10-22T06:17:54;100099.13;;;18.96;59.15
6349;BME280;3207;42.648;23.406;2022-10-22T06:20:20;100100.78;;;18.97;59.25
6349;BME280;3207;42.648;23.406;2022-10-22T06:22:47;100092.69;;;18.99;59.30
6349;BME280;3207;42.648;23.406;2022-10-22T06:25:14;100091.53;;;19.01;59.30
6349;BME280;3207;42.648;23.406;2022-10-22T06:27:41;100087.75;;;19.04;59.17
6349;BME280;3207;42.648;23.406;2022-10-22T06:30:09;100090.03;;;19.07;59.03
6349;BME280;3207;42.648;23.406;2022-10-22T06:32:37;100102.97;;;19.10;59.13
6349;BME280;3207;42.648;23.406;2022-10-22T06:35:05;100104.97;;;19.16;59.29
6349;BME280;3207;42.648;23.406;2022-10-22T06:37:32;100109.94;;;19.19;59.22
6349;BME280;3207;42.648;23.406;2022-10-22T06:39:58;100091.22;;;19.13;59.70
6349;BME280;3207;42.648;23.406;2022-10-22T06:42:26;100098.69;;;19.25;59.65
6349;BME280;3207;42.648;23.406;2022-10-22T06:44:53;100099.03;;;19.38;59.39
6349;BME280;3207;42.648;23.406;2022-10-22T06:47:20;100102.69;;;19.54;58.99
6349;BME280;3207;42.648;23.406;2022-10-22T06:49:49;100094.53;;;19.71;58.63
6349;BME280;3207;42.648;23.406;2022-10-22T06:52:16;100084.25;;;19.77;57.84
6349;BME280;3207;42.648;23.406;2022-10-22T06:54:43;100099.50;;;19.91;57.93
6349;BME280;3207;42.648;23.406;2022-10-22T06:57:10;100105.78;;;19.98;57.27
6349;BME280;3207;42.648;23.406;2022-10-22T06:59:36;100123.66;;;20.12;56.83
6349;BME280;3207;42.648;23.406;2022-10-22T07:02:03;100129.09;;;20.19;56.25
6349;BME280;3207;42.648;23.406;2022-10-22T07:04:30;100131.59;;;20.20;56.42
6349;BME280;3207;42.648;23.406;2022-10-22T07:06:58;100131.56;;;20.28;56.08
6349;BME280;3207;42.648;23.406;2022-10-22T07:09:25;100140.19;;;20.38;55.75
6349;BME280;3207;42.648;23.406;2022-10-22T07:11:52;100151.59;;;20.47;55.18
6349;BME280;3207;42.648;23.406;2022-10-22T07:14:18;100141.31;;;20.52;55.03
6349;BME280;3207;42.648;23.406;2022-10-22T07:16:45;100155.38;;;20.61;54.67
6349;BME280;3207;42.648;23.406;2022-10-22T07:19:12;100148.03;;;20.71;54.44
6349;BME280;3207;42.648;23.406;2022-10-22T07:21:39;100172.84;;;20.94;53.95
6349;BME280;3207;42.648;23.406;2022-10-22T07:24:08;100155.13;;;21.09;53.36
6349;BME280;3207;42.648;23.406;2022-10-22T07:26:34;100159.38;;;21.27;52.95
6349;BME280;3207;42.648;23.406;2022-10-22T07:29:02;100160.66;;;21.53;52.22
6349;BME280;3207;42.648;23.406;2022-10-22T07:31:29;100163.03;;;21.86;51.69
6349;BME280;3207;42.648;23.406;2022-10-22T07:33:57;100170.22;;;22.23;50.45
6349;BME280;3207;42.648;23.406;2022-10-22T07:36:23;100160.84;;;22.56;48.92
6349;BME280;3207;42.648;23.406;2022-10-22T07:38:54;100170.38;;;22.95;47.34
6349;BME280;3207;42.648;23.406;2022-10-22T07:41:23;100170.72;;;23.28;47.32
6349;BME280;3207;42.648;23.406;2022-10-22T07:43:51;100173.31;;;23.85;46.15
6349;BME280;3207;42.648;23.406;2022-10-22T07:46:18;100182.66;;;24.93;43.33
6349;BME280;3207;42.648;23.406;2022-10-22T07:48:45;100177.50;;;25.85;41.81
6349;BME280;3207;42.648;23.406;2022-10-22T07:51:13;100170.13;;;26.71;40.25
6349;BME280;3207;42.648;23.406;2022-10-22T07:53:40;100172.63;;;27.17;38.99
6349;BME280;3207;42.648;23.406;2022-10-22T07:56:07;100159.41;;;27.16;38.04
6349;BME280;3207;42.648;23.406;2022-10-22T07:58:35;100160.41;;;26.70;38.49
6349;BME280;3207;42.648;23.406;2022-10-22T08:01:03;100167.56;;;26.25;39.50
6349;BME280;3207;42.648;23.406;2022-10-22T08:03:31;100152.34;;;26.06;39.88
6349;BME280;3207;42.648;23.406;2022-10-22T08:05:59;100153.16;;;26.00;40.57
6349;BME280;3207;42.648;23.406;2022-10-22T08:08:26;100162.84;;;26.14;40.71
6349;BME280;3207;42.648;23.406;2022-10-22T08:10:56;100137.03;;;26.33;40.06
6349;BME280;3207;42.648;23.406;2022-10-22T08:13:23;100165.31;;;26.86;39.59
6349;BME280;3207;42.648;23.406;2022-10-22T08:15:52;100122.72;;;27.03;38.65
6349;BME280;3207;42.648;23.406;2022-10-22T08:18:18;100162.00;;;27.29;38.62
6349;BME280;3207;42.648;23.406;2022-10-22T08:20:45;100151.63;;;27.71;37.80
6349;BME280;3207;42.648;23.406;2022-10-22T08:23:12;100154.00;;;28.47;36.50
6349;BME280;3207;42.648;23.406;2022-10-22T08:25:39;100163.78;;;28.59;36.24
6349;BME280;3207;42.648;23.406;2022-10-22T08:28:05;100166.25;;;28.79;35.88
6349;BME280;3207;42.648;23.406;2022-10-22T08:30:32;100146.38;;;28.44;36.40
6349;BME280;3207;42.648;23.406;2022-10-22T08:33:03;100168.31;;;27.97;36.65
6349;BME280;3207;42.648;23.406;2022-10-22T08:35:30;100167.13;;;27.37;37.80
6349;BME280;3207;42.648;23.406;2022-10-22T08:37:57;100159.19;;;26.73;39.28
6349;BME280;3207;42.648;23.406;2022-10-22T08:40:29;100131.31;;;25.96;40.51
6349;BME280;3207;42.648;23.406;2022-10-22T08:43:36;100149.03;;;25.58;41.64
6349;BME280;3207;42.648;23.406;2022-10-22T08:46:19;100160.91;;;25.09;42.93
6349;BME280;3207;42.648;23.406;2022-10-22T08:48:52;100131.94;;;24.71;43.94
6349;BME280;3207;42.648;23.406;2022-10-22T08:51:21;100151.59;;;24.51;44.49
6349;BME280;3207;42.648;23.406;2022-10-22T08:54:06;100161.16;;;24.32;45.01
6349;BME280;3207;42.648;23.406;2022-10-22T08:56:39;100163.88;;;24.11;45.67
6349;BME280;3207;42.648;23.406;2022-10-22T08:59:12;100162.38;;;24.01;46.32
6349;BME280;3207;42.648;23.406;2022-10-22T09:01:44;100173.97;;;23.87;46.72
6349;BME280;3207;42.648;23.406;2022-10-22T09:04:18;100184.16;;;23.77;47.25
6349;BME280;3207;42.648;23.406;2022-10-22T09:06:50;100170.63;;;23.57;47.96
6349;BME280;3207;42.648;23.406;2022-10-22T09:09:18;100178.75;;;23.49;48.29
6349;BME280;3207;42.648;23.406;2022-10-22T09:11:47;100184.41;;;23.40;48.72
6349;BME280;3207;42.648;23.406;2022-10-22T09:14:17;100186.06;;;23.41;49.04
6349;BME280;3207;42.648;23.406;2022-10-22T09:17:06;100195.00;;;23.33;49.13
6349;BME280;3207;42.648;23.406;2022-10-22T09:19:46;100189.41;;;23.28;49.27
6349;BME280;3207;42.648;23.406;2022-10-22T09:22:24;100181.25;;;23.15;49.50
6349;BME280;3207;42.648;23.406;2022-10-22T09:24:58;100187.41;;;23.15;49.79
6349;BME280;3207;42.648;23.406;2022-10-22T09:27:27;100185.59;;;23.01;49.99
6349;BME280;3207;42.648;23.406;2022-10-22T09:29:54;100133.16;;;22.72;50.14
6349;BME280;3207;42.648;23.406;2022-10-22T09:32:21;100192.53;;;22.95;50.36
6349;BME280;3207;42.648;23.406;2022-10-22T09:34:54;100181.56;;;22.90;50.75
6349;BME280;3207;42.648;23.406;2022-10-22T09:37:24;100186.66;;;22.85;50.87
6349;BME280;3207;42.648;23.406;2022-10-22T09:39:53;100151.91;;;22.64;51.09
6349;BME280;3207;42.648;23.406;2022-10-22T09:42:21;100171.28;;;22.73;51.05
6349;BME280;3207;42.648;23.406;2022-10-22T09:44:51;100170.75;;;22.62;51.07
6349;BME280;3207;42.648;23.406;2022-10-22T09:47:31;100190.13;;;22.71;51.14
6349;BME280;3207;42.648;23.406;2022-10-22T09:50:17;100183.31;;;22.69;51.24
6349;BME280;3207;42.648;23.406;2022-10-22T09:52:54;100172.03;;;22.67;51.34
6349;BME280;3207;42.648;23.406;2022-10-22T09:55:24;100145.31;;;22.45;51.81
6349;BME280;3207;42.648;23.406;2022-10-22T09:57:52;100180.22;;;22.65;51.64
6349;BME280;3207;42.648;23.406;2022-10-22T10:00:19;100176.72;;;22.64;51.92
6349;BME280;3207;42.648;23.406;2022-10-22T10:02:53;100162.88;;;22.54;52.08
6349;BME280;3207;42.648;23.406;2022-10-22T10:05:27;100180.88;;;22.67;52.20
6349;BME280;3207;42.648;23.406;2022-10-22T10:07:54;100173.25;;;22.64;52.30
6349;BME280;3207;42.648;23.406;2022-10-22T10:10:28;100166.06;;;22.64;52.47
6349;BME280;3207;42.648;23.406;2022-10-22T10:13:05;100174.78;;;22.73;52.25
6349;BME280;3207;42.648;23.406;2022-10-22T10:15:37;100176.81;;;22.71;52.44
6349;BME280;3207;42.648;23.406;2022-10-22T10:18:16;100175.78;;;22.72;52.67
6349;BME280;3207;42.648;23.406;2022-10-22T10:20:53;100156.25;;;22.65;52.53
6349;BME280;3207;42.648;23.406;2022-10-22T10:23:26;100160.53;;;22.81;52.64
6349;BME280;3207;42.648;23.406;2022-10-22T10:26:00;100167.00;;;22.86;52.59
6349;BME280;3207;42.648;23.406;2022-10-22T10:28:42;100167.81;;;22.87;52.24
6349;BME280;3207;42.648;23.406;2022-10-22T10:31:18;100152.53;;;22.95;52.46
6349;BME280;3207;42.648;23.406;2022-10-22T10:33:52;100160.16;;;22.98;52.03
6349;BME280;3207;42.648;23.406;2022-10-22T10:36:30;100152.88;;;23.07;52.35
6349;BME280;3207;42.648;23.406;2022-10-22T10:39:05;100141.78;;;23.10;52.38
6349;BME280;3207;42.648;23.406;2022-10-22T10:41:43;100155.66;;;23.20;52.33
6349;BME280;3207;42.648;23.406;2022-10-22T10:44:26;100155.91;;;23.25;52.13
6349;BME280;3207;42.648;23.406;2022-10-22T10:47:02;100148.19;;;23.30;52.23
6349;BME280;3207;42.648;23.406;2022-10-22T10:49:33;100152.91;;;23.50;52.12
6349;BME280;3207;42.648;23.406;2022-10-22T10:52:08;100153.22;;;23.61;51.64
6349;BME280;3207;42.648;23.406;2022-10-22T10:54:46;100152.91;;;23.71;51.75
6349;BME280;3207;42.648;23.406;2022-10-22T10:57:23;100148.22;;;23.80;51.31
6349;BME280;3207;42.648;23.406;2022-10-22T11:00:02;100154.72;;;23.98;50.93
6349;BME280;3207;42.648;23.406;2022-10-22T11:02:41;100134.03;;;24.07;50.85
6349;BME280;3207;42.648;23.406;2022-10-22T11:05:21;100070.19;;;23.84;50.55
6349;BME280;3207;42.648;23.406;2022-10-22T11:07:57;100146.22;;;24.44;50.22
6349;BME280;3207;42.648;23.406;2022-10-22T11:10:29;100133.31;;;24.54;49.65
6349;BME280;3207;42.648;23.406;2022-10-22T11:13:03;100125.75;;;24.64;49.57
6349;BME280;3207;42.648;23.406;2022-10-22T11:15:34;100117.09;;;24.62;49.44
6349;BME280;3207;42.648;23.406;2022-10-22T11:18:07;100132.34;;;24.68;49.29
6349;BME280;3207;42.648;23.406;2022-10-22T11:20:43;100116.66;;;24.59;48.97
6349;BME280;3207;42.648;23.406;2022-10-22T11:23:16;100103.66;;;24.49;48.85
6349;BME280;3207;42.648;23.406;2022-10-22T11:25:46;100119.31;;;24.52;48.62
6349;BME280;3207;42.648;23.406;2022-10-22T11:28:17;100116.19;;;24.42;48.86
6349;BME280;3207;42.648;23.406;2022-10-22T11:30:48;100053.44;;;23.97;48.90
6349;BME280;3207;42.648;23.406;2022-10-22T11:33:18;100123.34;;;24.35;49.00
6349;BME280;3207;42.648;23.406;2022-10-22T11:35:47;100111.41;;;24.37;48.91
6349;BME280;3207;42.648;23.406;2022-10-22T11:38:19;100108.88;;;24.64;48.54
6349;BME280;3207;42.648;23.406;2022-10-22T11:40:50;100094.38;;;24.93;48.03
6349;BME280;3207;42.648;23.406;2022-10-22T11:43:28;100105.16;;;25.59;46.99
6349;BME280;3207;42.648;23.406;2022-10-22T11:46:01;100101.25;;;25.94;45.20
6349;BME280;3207;42.648;23.406;2022-10-22T11:48:35;100097.25;;;26.30;44.16
6349;BME280;3207;42.648;23.406;2022-10-22T11:51:03;100102.13;;;26.52;43.47
6349;BME280;3207;42.648;23.406;2022-10-22T11:53:32;100108.88;;;26.61;43.53
6349;BME280;3207;42.648;23.406;2022-10-22T11:56:03;100121.91;;;26.58;43.27
6349;BME280;3207;42.648;23.406;2022-10-22T11:58:47;100113.50;;;26.48;43.58
6349;BME280;3207;42.648;23.406;2022-10-22T12:01:23;100095.59;;;26.29;43.71
6349;BME280;3207;42.648;23.406;2022-10-22T12:03:51;100096.22;;;26.31;44.03
6349;BME280;3207;42.648;23.406;2022-10-22T12:06:21;100092.69;;;26.37;44.14
6349;BME280;3207;42.648;23.406;2022-10-22T12:08:56;100103.63;;;26.35;43.88
6349;BME280;3207;42.648;23.406;2022-10-22T12:11:25;100090.03;;;26.17;44.13
6349;BME280;3207;42.648;23.406;2022-10-22T12:14:13;100101.44;;;25.99;45.10
6349;BME280;3207;42.648;23.406;2022-10-22T12:16:43;100095.09;;;25.74;45.49
6349;BME280;3207;42.648;23.406;2022-10-22T12:19:14;100075.69;;;25.45;45.76
6349;BME280;3207;42.648;23.406;2022-10-22T12:21:44;100080.44;;;25.30;46.87
6349;BME280;3207;42.648;23.406;2022-10-22T12:24:16;100064.34;;;25.04;46.96
6349;BME280;3207;42.648;23.406;2022-10-22T12:26:43;100078.13;;;25.01;47.48
6349;BME280;3207;42.648;23.406;2022-10-22T12:29:13;100072.75;;;24.88;48.05
6349;BME280;3207;42.648;23.406;2022-10-22T12:31:42;100066.53;;;24.80;48.66
6349;BME280;3207;42.648;23.406;2022-10-22T12:34:14;100073.97;;;24.78;49.40
6349;BME280;3207;42.648;23.406;2022-10-22T12:36:41;100063.47;;;24.77;49.44
6349;BME280;3207;42.648;23.406;2022-10-22T12:39:12;100055.00;;;24.80;49.78
6349;BME280;3207;42.648;23.406;2022-10-22T12:41:41;100064.28;;;24.84;49.97
6349;BME280;3207;42.648;23.406;2022-10-22T12:44:11;100054.66;;;24.90;49.49
6349;BME280;3207;42.648;23.406;2022-10-22T12:46:39;100058.38;;;25.02;49.61
6349;BME280;3207;42.648;23.406;2022-10-22T12:49:13;100043.19;;;25.09;49.40
6349;BME280;3207;42.648;23.406;2022-10-22T12:51:40;100054.69;;;25.16;49.25
6349;BME280;3207;42.648;23.406;2022-10-22T12:54:12;100045.00;;;25.22;49.54
6349;BME280;3207;42.648;23.406;2022-10-22T12:56:42;100033.91;;;25.25;49.36
6349;BME280;3207;42.648;23.406;2022-10-22T12:59:17;100040.72;;;25.27;49.44
6349;BME280;3207;42.648;23.406;2022-10-22T13:01:47;100027.31;;;25.27;49.37
6349;BME280;3207;42.648;23.406;2022-10-22T13:04:19;100029.38;;;25.25;49.57
6349;BME280;3207;42.648;23.406;2022-10-22T13:06:48;100027.34;;;25.21;49.24
6349;BME280;3207;42.648;23.406;2022-10-22T13:09:18;100036.16;;;25.14;49.92
6349;BME280;3207;42.648;23.406;2022-10-22T13:11:52;100029.38;;;25.12;50.26
6349;BME280;3207;42.648;23.406;2022-10-22T13:14:25;100014.75;;;25.01;50.51
6349;BME280;3207;42.648;23.406;2022-10-22T13:17:11;100029.16;;;24.94;50.70